sensor_id;sensor_type;location;lat;lon;timestamp;pressure;altitude;pressure_sealevel;temperature;humidity
9187;BME280;7273;48.902;9.410;2022-12-29T00:02:02;97598.66;;;10.34;70.36
9187;BME280;7273;48.902;9.410;2022-12-29T00:04:27;97599.69;;;10.38;70.84
9187;BME280;7273;48.902;9.410;2022-12-29T00:06:53;97598.09;;;10.37;70.31
9187;BME280;7273;48.902;9.410;2022-12-29T00:09:19;97596.19;;;10.38;68.26
9187;BME280;7273;48.902;9.410;2022-12-29T00:11:45;97587.78;;;10.39;69.95
9187;BME280;7273;48.902;9.410;2022-12-29T00:14:11;97582.91;;;10.41;70.50
9187;BME280;7273;48.902;9.410;2022-12-29T00:16:56;97585.84;;;10.45;70.71
9187;BME280;7273;48.902;9.410;2022-12-29T00:19:22;97580.44;;;10.45;71.35
9187;BME280;7273;48.902;9.410;2022-12-29T00:22:09;97572.03;;;10.46;70.72
9187;BME280;7273;48.902;9.410;2022-12-29T00:24:53;97573.91;;;10.46;70.51
9187;BME280;7273;48.902;9.410;2022-12-29T00:27:34;97571.44;;;10.49;70.41
9187;BME280;7273;48.902;9.410;2022-12-29T00:30:22;97574.97;;;10.50;70.72
9187;BME280;7273;48.902;9.410;2022-12-29T00:33:21;97566.81;;;10.55;70.41
9187;BME280;7273;48.902;9.410;2022-12-29T00:36:27;97564.63;;;10.57;69.54
9187;BME280;7273;48.902;9.410;2022-12-29T00:39:14;97557.53;;;10.61;70.16
9187;BME280;7273;48.902;9.410;2022-12-29T00:42:07;97555.34;;;10.63;70.25
9187;BME280;7273;48.902;9.410;2022-12-29T00:44:51;97562.59;;;10.67;67.50
9187;BME280;7273;48.902;9.410;2022-12-29T00:47:17;97560.09;;;10.71;69.39
9187;BME280;7273;48.902;9.410;2022-12-29T00:49:42;97546.31;;;10.72;69.88
9187;BME280;7273;48.902;9.410;2022-12-29T00:52:10;97556.53;;;10.75;70.12
9187;BME280;7273;48.902;9.410;2022-12-29T00:54:37;97552.47;;;10.78;69.68
9187;BME280;7273;48.902;9.410;2022-12-29T00:57:05;97563.81;;;10.80;69.75
9187;BME280;7273;48.902;9.410;2022-12-29T00:59:31;97546.19;;;10.82;70.33
9187;BME280;7273;48.902;9.410;2022-12-29T01:01:57;97549.69;;;10.83;69.08
9187;BME280;7273;48.902;9.410;2022-12-29T01:04:24;97547.22;;;10.87;70.13
9187;BME280;7273;48.902;9.410;2022-12-29T01:06:50;97551.22;;;10.89;69.96
9187;BME280;7273;48.902;9.410;2022-12-29T01:09:17;97552.63;;;10.87;69.79
9187;BME280;7273;48.902;9.410;2022-12-29T01:12:02;97552.81;;;10.90;69.42
9187;BME280;7273;48.902;9.410;2022-12-29T01:14:28;97556.56;;;10.94;69.24
9187;BME280;7273;48.902;9.410;2022-12-29T01:16:54;97554.69;;;10.95;66.57
9187;BME280;7273;48.902;9.410;2022-12-29T01:19:20;97559.78;;;10.96;67.74
9187;BME280;7273;48.902;9.410;2022-12-29T01:21:47;97561.09;;;10.99;69.32
9187;BME280;7273;48.902;9.410;2022-12-29T01:24:14;97558.69;;;10.97;66.89
9187;BME280;7273;48.902;9.410;2022-12-29T01:26:39;97568.69;;;10.97;63.76
9187;BME280;7273;48.902;9.410;2022-12-29T01:29:04;97564.63;;;10.99;63.97
9187;BME280;7273;48.902;9.410;2022-12-29T01:31:30;97567.84;;;11.01;65.69
9187;BME280;7273;48.902;9.410;2022-12-29T01:33:55;97562.16;;;11.03;67.45
9187;BME280;7273;48.902;9.410;2022-12-29T01:36:21;97574.28;;;11.05;66.94
9187;BME280;7273;48.902;9.410;2022-12-29T01:38:46;97575.66;;;11.03;66.20
9187;BME280;7273;48.902;9.410;2022-12-29T01:41:13;97573.19;;;11.06;67.69
9187;BME280;7273;48.902;9.410;2022-12-29T01:43:54;97573.19;;;11.06;66.39
9187;BME280;7273;48.902;9.410;2022-12-29T01:46:28;97574.50;;;11.09;68.70
9187;BME280;7273;48.902;9.410;2022-12-29T01:49:07;97573.69;;;11.08;68.69
9187;BME280;7273;48.902;9.410;2022-12-29T01:51:43;97573.41;;;11.10;68.75
9187;BME280;7273;48.902;9.410;2022-12-29T01:54:13;97570.41;;;11.11;69.60
9187;BME280;7273;48.902;9.410;2022-12-29T01:56:42;97565.50;;;11.13;69.25
9187;BME280;7273;48.902;9.410;2022-12-29T01:59:14;97575.25;;;11.14;67.59
9187;BME280;7273;48.902;9.410;2022-12-29T02:01:41;97564.06;;;11.21;69.00
9187;BME280;7273;48.902;9.410;2022-12-29T02:04:08;97567.28;;;11.23;69.50
9187;BME280;7273;48.902;9.410;2022-12-29T02:06:42;97567.53;;;11.21;69.98
9187;BME280;7273;48.902;9.410;2022-12-29T02:09:10;97565.94;;;11.20;68.86
9187;BME280;7273;48.902;9.410;2022-12-29T02:11:36;97570.53;;;11.20;69.06
9187;BME280;7273;48.902;9.410;2022-12-29T02:14:08;97564.06;;;11.21;69.18
9187;BME280;7273;48.902;9.410;2022-12-29T02:35:15;97545.88;;;11.21;70.31
9187;BME280;7273;48.902;9.410;2022-12-29T02:37:50;97546.41;;;11.23;69.77
9187;BME280;7273;48.902;9.410;2022-12-29T02:40:46;97551.03;;;11.23;69.50
9187;BME280;7273;48.902;9.410;2022-12-29T02:43:23;97536.69;;;11.22;69.79
9187;BME280;7273;48.902;9.410;2022-12-29T02:48:40;97535.06;;;11.21;69.07
9187;BME280;7273;48.902;9.410;2022-12-29T02:51:12;97539.19;;;11.19;69.91
9187;BME280;7273;48.902;9.410;2022-12-29T02:53:43;97535.06;;;11.21;69.11
9187;BME280;7273;48.902;9.410;2022-12-29T02:56:26;97541.28;;;11.22;69.53
9187;BME280;7273;48.902;9.410;2022-12-29T02:58:52;97534.00;;;11.22;69.58
9187;BME280;7273;48.902;9.410;2022-12-29T03:01:56;97539.09;;;11.24;70.05
9187;BME280;7273;48.902;9.410;2022-12-29T03:04:31;97539.09;;;11.24;69.90
9187;BME280;7273;48.902;9.410;2022-12-29T03:07:12;97531.28;;;11.22;70.06
9187;BME280;7273;48.902;9.410;2022-12-29T03:09:54;97536.41;;;11.24;69.93
9187;BME280;7273;48.902;9.410;2022-12-29T03:12:48;97529.09;;;11.24;69.53
9187;BME280;7273;48.902;9.410;2022-12-29T03:15:48;97524.47;;;11.25;69.27
9187;BME280;7273;48.902;9.410;2022-12-29T03:21:07;97528.78;;;11.26;69.82
9187;BME280;7273;48.902;9.410;2022-12-29T03:23:34;97529.03;;;11.29;69.80
9187;BME280;7273;48.902;9.410;2022-12-29T03:26:05;97526.56;;;11.28;68.54
9187;BME280;7273;48.902;9.410;2022-12-29T03:28:39;97527.38;;;11.28;69.43
9187;BME280;7273;48.902;9.410;2022-12-29T03:31:07;97515.19;;;11.31;69.92
9187;BME280;7273;48.902;9.410;2022-12-29T03:33:36;97510.06;;;11.29;69.11
9187;BME280;7273;48.902;9.410;2022-12-29T03:36:07;97505.97;;;11.32;69.77
9187;BME280;7273;48.902;9.410;2022-12-29T03:41:07;97501.84;;;11.34;69.03
9187;BME280;7273;48.902;9.410;2022-12-29T03:43:33;97502.66;;;11.35;69.30
9187;BME280;7273;48.902;9.410;2022-12-29T03:45:59;97502.66;;;11.35;68.90
9187;BME280;7273;48.902;9.410;2022-12-29T03:48:25;97498.56;;;11.37;67.54
9187;BME280;7273;48.902;9.410;2022-12-29T03:50:50;97505.06;;;11.36;66.98
9187;BME280;7273;48.902;9.410;2022-12-29T03:53:16;97497.75;;;11.37;66.26
9187;BME280;7273;48.902;9.410;2022-12-29T03:55:41;97497.16;;;11.40;67.32
9187;BME280;7273;48.902;9.410;2022-12-29T03:58:06;97501.50;;;11.41;68.08
9187;BME280;7273;48.902;9.410;2022-12-29T04:00:32;97487.66;;;11.42;68.94
9187;BME280;7273;48.902;9.410;2022-12-29T04:02:57;97498.97;;;11.44;69.37
9187;BME280;7273;48.902;9.410;2022-12-29T04:05:23;97491.75;;;11.40;69.02
9187;BME280;7273;48.902;9.410;2022-12-29T04:07:48;97510.69;;;11.40;69.20
9187;BME280;7273;48.902;9.410;2022-12-29T04:10:14;97503.16;;;11.37;68.93
9187;BME280;7273;48.902;9.410;2022-12-29T04:12:39;97500.16;;;11.38;68.87
9187;BME280;7273;48.902;9.410;2022-12-29T04:15:07;97500.75;;;11.35;69.63
9187;BME280;7273;48.902;9.410;2022-12-29T04:17:33;97495.88;;;11.37;70.04
9187;BME280;7273;48.902;9.410;2022-12-29T04:19:58;97493.44;;;11.36;68.94
9187;BME280;7273;48.902;9.410;2022-12-29T04:22:44;97501.56;;;11.36;69.47
9187;BME280;7273;48.902;9.410;2022-12-29T04:25:09;97495.34;;;11.35;65.36
9187;BME280;7273;48.902;9.410;2022-12-29T04:27:35;97514.81;;;11.37;66.71
9187;BME280;7273;48.902;9.410;2022-12-29T04:30:01;97516.13;;;11.40;67.45
9187;BME280;7273;48.902;9.410;2022-12-29T04:32:26;97520.63;;;11.44;65.02
9187;BME280;7273;48.902;9.410;2022-12-29T04:34:51;97520.34;;;11.46;66.10
9187;BME280;7273;48.902;9.410;2022-12-29T04:37:17;97516.25;;;11.48;67.69
9187;BME280;7273;48.902;9.410;2022-12-29T04:39:42;97515.94;;;11.50;66.81
9187;BME280;7273;48.902;9.410;2022-12-29T04:42:08;97514.53;;;11.52;67.57
9187;BME280;7273;48.902;9.410;2022-12-29T04:44:33;97523.19;;;11.54;66.52
9187;BME280;7273;48.902;9.410;2022-12-29T04:46:59;97515.28;;;11.58;64.85
9187;BME280;7273;48.902;9.410;2022-12-29T04:49:24;97506.56;;;11.61;66.02
9187;BME280;7273;48.902;9.410;2022-12-29T04:51:49;97506.25;;;11.62;66.06
9187;BME280;7273;48.902;9.410;2022-12-29T04:54:15;97501.66;;;11.63;67.18
9187;BME280;7273;48.902;9.410;2022-12-29T04:56:40;97497.91;;;11.59;66.86
9187;BME280;7273;48.902;9.410;2022-12-29T04:59:05;97506.84;;;11.59;66.33
9187;BME280;7273;48.902;9.410;2022-12-29T05:01:31;97499.31;;;11.56;66.73
9187;BME280;7273;48.902;9.410;2022-12-29T05:03:56;97499.63;;;11.55;66.93
9187;BME280;7273;48.902;9.410;2022-12-29T05:06:22;97494.50;;;11.53;65.41
9187;BME280;7273;48.902;9.410;2022-12-29T05:08:47;97495.59;;;11.52;66.74
9187;BME280;7273;48.902;9.410;2022-12-29T05:11:13;97488.06;;;11.49;67.39
9187;BME280;7273;48.902;9.410;2022-12-29T05:13:38;97491.59;;;11.50;66.48
9187;BME280;7273;48.902;9.410;2022-12-29T05:16:03;97490.00;;;11.49;67.22
9187;BME280;7273;48.902;9.410;2022-12-29T05:18:29;97488.56;;;11.51;65.08
9187;BME280;7273;48.902;9.410;2022-12-29T05:20:54;97476.63;;;11.52;65.57
9187;BME280;7273;48.902;9.410;2022-12-29T05:23:20;97486.47;;;11.48;65.65
9187;BME280;7273;48.902;9.410;2022-12-29T05:25:45;97481.88;;;11.49;67.02
9187;BME280;7273;48.902;9.410;2022-12-29T05:28:11;97485.34;;;11.49;65.10
9187;BME280;7273;48.902;9.410;2022-12-29T05:30:36;97474.03;;;11.47;65.80
9187;BME280;7273;48.902;9.410;2022-12-29T05:33:01;97466.19;;;11.46;67.13
9187;BME280;7273;48.902;9.410;2022-12-29T05:35:27;97469.78;;;11.41;66.95
9187;BME280;7273;48.902;9.410;2022-12-29T05:37:52;97471.72;;;11.41;67.49
9187;BME280;7273;48.902;9.410;2022-12-29T05:40:18;97482.25;;;11.42;66.40
9187;BME280;7273;48.902;9.410;2022-12-29T05:42:43;97498.50;;;11.42;66.62
9187;BME280;7273;48.902;9.410;2022-12-29T05:45:09;97503.59;;;11.44;64.04
9187;BME280;7273;48.902;9.410;2022-12-29T05:47:34;97491.38;;;11.46;67.04
9187;BME280;7273;48.902;9.410;2022-12-29T05:50:00;97480.84;;;11.45;67.68
9187;BME280;7273;48.902;9.410;2022-12-29T05:52:26;97487.66;;;11.42;68.39
9187;BME280;7273;48.902;9.410;2022-12-29T05:54:51;97480.41;;;11.38;67.03
9187;BME280;7273;48.902;9.410;2022-12-29T05:57:17;97486.13;;;11.36;67.43
9187;BME280;7273;48.902;9.410;2022-12-29T05:59:42;97486.13;;;11.36;68.15
9187;BME280;7273;48.902;9.410;2022-12-29T06:02:09;97483.72;;;11.35;68.25
9187;BME280;7273;48.902;9.410;2022-12-29T06:04:34;97494.22;;;11.36;68.17
9187;BME280;7273;48.902;9.410;2022-12-29T06:07:00;97491.75;;;11.40;69.06
9187;BME280;7273;48.902;9.410;2022-12-29T06:09:25;97490.66;;;11.41;67.60
9187;BME280;7273;48.902;9.410;2022-12-29T06:11:50;97477.13;;;11.41;67.08
9187;BME280;7273;48.902;9.410;2022-12-29T06:14:16;97474.41;;;11.41;67.66
9187;BME280;7273;48.902;9.410;2022-12-29T06:16:41;97462.25;;;11.38;68.44
9187;BME280;7273;48.902;9.410;2022-12-29T06:19:07;97458.75;;;11.38;69.39
9187;BME280;7273;48.902;9.410;2022-12-29T06:21:32;97475.97;;;11.28;66.38
9187;BME280;7273;48.902;9.410;2022-12-29T06:23:58;97475.44;;;11.26;67.85
9187;BME280;7273;48.902;9.410;2022-12-29T06:26:23;97479.84;;;11.22;67.78
9187;BME280;7273;48.902;9.410;2022-12-29T06:28:48;97481.44;;;11.23;67.28
9187;BME280;7273;48.902;9.410;2022-12-29T06:31:14;97487.97;;;11.22;66.95
9187;BME280;7273;48.902;9.410;2022-12-29T06:33:39;97490.38;;;11.24;65.89
9187;BME280;7273;48.902;9.410;2022-12-29T06:36:05;97486.28;;;11.26;66.88
9187;BME280;7273;48.902;9.410;2022-12-29T06:38:31;97485.97;;;11.28;66.43
9187;BME280;7273;48.902;9.410;2022-12-29T06:40:56;97485.41;;;11.31;63.16
9187;BME280;7273;48.902;9.410;2022-12-29T06:43:21;97488.31;;;11.34;63.17
9187;BME280;7273;48.902;9.410;2022-12-29T06:45:47;97490.44;;;11.37;64.75
9187;BME280;7273;48.902;9.410;2022-12-29T06:48:12;97484.75;;;11.39;67.25
9187;BME280;7273;48.902;9.410;2022-12-29T06:50:38;97482.53;;;11.41;66.80
9187;BME280;7273;48.902;9.410;2022-12-29T06:53:03;97483.31;;;11.41;67.91
9187;BME280;7273;48.902;9.410;2022-12-29T06:55:29;97481.66;;;11.45;68.60
9187;BME280;7273;48.902;9.410;2022-12-29T06:57:55;97490.84;;;11.44;68.70
9187;BME280;7273;48.902;9.410;2022-12-29T07:00:22;97482.94;;;11.48;68.03
9187;BME280;7273;48.902;9.410;2022-12-29T07:02:47;97488.66;;;11.46;68.68
9187;BME280;7273;48.902;9.410;2022-12-29T07:05:13;97476.22;;;11.45;68.47
9187;BME280;7273;48.902;9.410;2022-12-29T07:07:39;97474.59;;;11.44;67.41
9187;BME280;7273;48.902;9.410;2022-12-29T07:10:05;97484.56;;;11.49;68.45
9187;BME280;7273;48.902;9.410;2022-12-29T07:12:30;97485.13;;;11.46;68.45
9187;BME280;7273;48.902;9.410;2022-12-29T07:14:55;97485.13;;;11.46;68.79
9187;BME280;7273;48.902;9.410;2022-12-29T07:17:21;97480.25;;;11.48;69.06
9187;BME280;7273;48.902;9.410;2022-12-29T07:19:46;97478.44;;;11.43;64.73
9187;BME280;7273;48.902;9.410;2022-12-29T07:22:12;97481.34;;;11.47;67.90
9187;BME280;7273;48.902;9.410;2022-12-29T07:24:37;97490.28;;;11.47;68.13
9187;BME280;7273;48.902;9.410;2022-12-29T07:27:03;97479.94;;;11.49;67.77
9187;BME280;7273;48.902;9.410;2022-12-29T07:29:28;97479.63;;;11.51;68.66
9187;BME280;7273;48.902;9.410;2022-12-29T07:31:54;97488.56;;;11.51;68.44
9187;BME280;7273;48.902;9.410;2022-12-29T07:34:19;97487.28;;;11.49;68.56
9187;BME280;7273;48.902;9.410;2022-12-29T07:36:44;97488.88;;;11.50;67.81
9187;BME280;7273;48.902;9.410;2022-12-29T07:39:10;97487.47;;;11.52;68.71
9187;BME280;7273;48.902;9.410;2022-12-29T07:41:36;97487.47;;;11.52;68.63
9187;BME280;7273;48.902;9.410;2022-12-29T07:44:02;97499.94;;;11.53;68.85
9187;BME280;7273;48.902;9.410;2022-12-29T07:46:27;97495.03;;;11.55;68.83
9187;BME280;7273;48.902;9.410;2022-12-29T07:48:53;97491.19;;;11.56;68.72
9187;BME280;7273;48.902;9.410;2022-12-29T07:51:18;97493.31;;;11.59;69.08
9187;BME280;7273;48.902;9.410;2022-12-29T07:53:44;97495.44;;;11.62;69.29
9187;BME280;7273;48.902;9.410;2022-12-29T07:56:09;97488.66;;;11.65;69.01
9187;BME280;7273;48.902;9.410;2022-12-29T07:58:34;97497.56;;;11.65;68.05
9187;BME280;7273;48.902;9.410;2022-12-29T08:01:00;97504.59;;;11.66;67.75
9187;BME280;7273;48.902;9.410;2022-12-29T08:03:25;97510.53;;;11.68;66.97
9187;BME280;7273;48.902;9.410;2022-12-29T08:05:52;97515.88;;;11.73;68.85
9187;BME280;7273;48.902;9.410;2022-12-29T08:08:17;97512.66;;;11.71;66.46
9187;BME280;7273;48.902;9.410;2022-12-29T08:10:43;97514.16;;;11.77;67.59
9187;BME280;7273;48.902;9.410;2022-12-29T08:13:09;97511.38;;;11.82;68.11
9187;BME280;7273;48.902;9.410;2022-12-29T08:15:34;97521.31;;;11.87;68.48
9187;BME280;7273;48.902;9.410;2022-12-29T08:18:00;97515.88;;;11.87;68.58
9187;BME280;7273;48.902;9.410;2022-12-29T08:20:26;97522.34;;;11.91;68.52
9187;BME280;7273;48.902;9.410;2022-12-29T08:22:51;97519.31;;;11.92;68.36
9187;BME280;7273;48.902;9.410;2022-12-29T08:25:16;97515.19;;;11.95;67.87
9187;BME280;7273;48.902;9.410;2022-12-29T08:27:42;97513.31;;;11.95;67.82
9187;BME280;7273;48.902;9.410;2022-12-29T08:30:08;97515.72;;;11.97;67.81
9187;BME280;7273;48.902;9.410;2022-12-29T08:32:34;97527.38;;;11.97;68.23
9187;BME280;7273;48.902;9.410;2022-12-29T08:34:59;97522.94;;;12.01;68.80
9187;BME280;7273;48.902;9.410;2022-12-29T08:37:25;97517.50;;;12.01;68.84
9187;BME280;7273;48.902;9.410;2022-12-29T08:39:51;97528.56;;;12.05;69.17
9187;BME280;7273;48.902;9.410;2022-12-29T08:42:16;97514.72;;;12.06;69.01
9187;BME280;7273;48.902;9.410;2022-12-29T08:44:42;97527.19;;;12.07;68.21
9187;BME280;7273;48.902;9.410;2022-12-29T08:47:09;97512.72;;;12.12;68.76
9187;BME280;7273;48.902;9.410;2022-12-29T08:49:35;97506.50;;;12.11;68.80
9187;BME280;7273;48.902;9.410;2022-12-29T08:52:01;97501.28;;;12.15;68.77
9187;BME280;7273;48.902;9.410;2022-12-29T08:54:27;97506.41;;;12.16;67.93
9187;BME280;7273;48.902;9.410;2022-12-29T08:56:52;97510.44;;;12.19;67.86
9187;BME280;7273;48.902;9.410;2022-12-29T08:59:18;97518.78;;;12.23;68.12
9187;BME280;7273;48.902;9.410;2022-12-29T09:01:44;97511.13;;;12.25;68.44
9187;BME280;7273;48.902;9.410;2022-12-29T09:04:09;97531.41;;;12.27;67.79
9187;BME280;7273;48.902;9.410;2022-12-29T09:06:35;97532.72;;;12.30;67.72
9187;BME280;7273;48.902;9.410;2022-12-29T09:09:00;97535.13;;;12.31;67.77
9187;BME280;7273;48.902;9.410;2022-12-29T09:11:26;97530.72;;;12.35;67.82
9187;BME280;7273;48.902;9.410;2022-12-29T09:13:52;97542.06;;;12.37;65.48
9187;BME280;7273;48.902;9.410;2022-12-29T09:16:19;97543.88;;;12.42;66.92
9187;BME280;7273;48.902;9.410;2022-12-29T09:18:45;97536.56;;;12.42;67.27
9187;BME280;7273;48.902;9.410;2022-12-29T09:21:12;97542.75;;;12.43;63.63
9187;BME280;7273;48.902;9.410;2022-12-29T09:23:37;97542.47;;;12.44;64.79
9187;BME280;7273;48.902;9.410;2022-12-29T09:26:03;97548.41;;;12.46;61.27
9187;BME280;7273;48.902;9.410;2022-12-29T09:28:30;97541.59;;;12.49;63.80
9187;BME280;7273;48.902;9.410;2022-12-29T09:30:56;97547.69;;;12.54;66.35
9187;BME280;7273;48.902;9.410;2022-12-29T09:33:22;97552.81;;;12.56;66.07
9187;BME280;7273;48.902;9.410;2022-12-29T09:35:55;97553.31;;;12.58;65.25
9187;BME280;7273;48.902;9.410;2022-12-29T09:38:22;97546.78;;;12.59;65.81
9187;BME280;7273;48.902;9.410;2022-12-29T09:40:56;97544.88;;;12.59;61.87
9187;BME280;7273;48.902;9.410;2022-12-29T09:46:28;97553.13;;;12.68;66.30
9187;BME280;7273;48.902;9.410;2022-12-29T09:51:38;97549.00;;;12.70;65.84
9187;BME280;7273;48.902;9.410;2022-12-29T09:54:19;97549.00;;;12.70;58.70
9187;BME280;7273;48.902;9.410;2022-12-29T09:56:47;97536.63;;;12.78;65.55
9187;BME280;7273;48.902;9.410;2022-12-29T09:59:19;97546.38;;;12.79;64.68
9187;BME280;7273;48.902;9.410;2022-12-29T10:02:27;97535.00;;;12.77;58.82
9187;BME280;7273;48.902;9.410;2022-12-29T10:04:54;97549.78;;;12.84;62.82
9187;BME280;7273;48.902;9.410;2022-12-29T10:10:35;97527.56;;;12.96;63.74
9187;BME280;7273;48.902;9.410;2022-12-29T10:15:59;97538.03;;;13.02;65.79
9187;BME280;7273;48.902;9.410;2022-12-29T10:23:52;97535.50;;;12.92;61.58
9187;BME280;7273;48.902;9.410;2022-12-29T10:26:20;97545.25;;;12.93;64.82
9187;BME280;7273;48.902;9.410;2022-12-29T10:28:51;97539.50;;;12.95;66.02
9187;BME280;7273;48.902;9.410;2022-12-29T10:31:31;97534.19;;;12.90;64.74
9187;BME280;7273;48.902;9.410;2022-12-29T10:34:02;97562.16;;;12.90;65.40
9187;BME280;7273;48.902;9.410;2022-12-29T10:36:35;97558.03;;;12.93;64.44
9187;BME280;7273;48.902;9.410;2022-12-29T10:39:10;97540.13;;;12.92;63.44
9187;BME280;7273;48.902;9.410;2022-12-29T10:41:46;97538.84;;;12.89;61.16
9187;BME280;7273;48.902;9.410;2022-12-29T10:44:15;97540.63;;;12.94;65.70
9187;BME280;7273;48.902;9.410;2022-12-29T10:46:41;97549.09;;;12.92;65.76
9187;BME280;7273;48.902;9.410;2022-12-29T10:49:16;97533.91;;;12.91;65.36
9187;BME280;7273;48.902;9.410;2022-12-29T10:51:45;97535.19;;;12.94;66.51
9187;BME280;7273;48.902;9.410;2022-12-29T10:54:28;97539.94;;;12.88;64.92
9187;BME280;7273;48.902;9.410;2022-12-29T10:57:09;97535.31;;;12.89;65.84
9187;BME280;7273;48.902;9.410;2022-12-29T10:59:37;97538.34;;;12.87;66.29
9187;BME280;7273;48.902;9.410;2022-12-29T11:07:53;97546.38;;;12.92;67.51
9187;BME280;7273;48.902;9.410;2022-12-29T11:10:41;97546.06;;;12.94;67.51
9187;BME280;7273;48.902;9.410;2022-12-29T11:15:47;97543.25;;;12.99;68.36
9187;BME280;7273;48.902;9.410;2022-12-29T11:18:24;97542.66;;;13.02;68.39
9187;BME280;7273;48.902;9.410;2022-12-29T11:20:52;97547.47;;;13.05;67.95
9187;BME280;7273;48.902;9.410;2022-12-29T11:23:38;97541.31;;;13.13;68.28
9187;BME280;7273;48.902;9.410;2022-12-29T11:26:16;97539.63;;;13.17;68.33
9187;BME280;7273;48.902;9.410;2022-12-29T11:28:44;97532.94;;;13.23;68.99
9187;BME280;7273;48.902;9.410;2022-12-29T11:31:12;97540.00;;;13.24;65.80
9187;BME280;7273;48.902;9.410;2022-12-29T11:33:40;97542.41;;;13.25;68.70
9187;BME280;7273;48.902;9.410;2022-12-29T11:38:52;97545.44;;;13.24;68.38
9187;BME280;7273;48.902;9.410;2022-12-29T11:41:30;97533.97;;;13.27;68.88
9187;BME280;7273;48.902;9.410;2022-12-29T11:44:02;97538.28;;;13.28;68.78
9187;BME280;7273;48.902;9.410;2022-12-29T11:46:34;97533.97;;;13.27;68.74
9187;BME280;7273;48.902;9.410;2022-12-29T11:49:02;97538.38;;;13.23;68.77
9187;BME280;7273;48.902;9.410;2022-12-29T11:51:31;97549.75;;;13.25;69.02
9187;BME280;7273;48.902;9.410;2022-12-29T11:54:00;97531.84;;;13.24;68.78
9187;BME280;7273;48.902;9.410;2022-12-29T11:56:34;97540.91;;;13.19;65.98
9187;BME280;7273;48.902;9.410;2022-12-29T12:02:16;97552.19;;;13.13;69.03
9187;BME280;7273;48.902;9.410;2022-12-29T12:04:43;97543.47;;;13.02;68.96
9187;BME280;7273;48.902;9.410;2022-12-29T12:07:15;97551.63;;;13.02;69.56
9187;BME280;7273;48.902;9.410;2022-12-29T12:10:03;97542.47;;;12.85;66.50
9187;BME280;7273;48.902;9.410;2022-12-29T12:12:35;97546.16;;;12.75;64.47
9187;BME280;7273;48.902;9.410;2022-12-29T12:15:03;97549.00;;;12.70;65.60
9187;BME280;7273;48.902;9.410;2022-12-29T12:20:18;97548.91;;;12.62;65.60
9187;BME280;7273;48.902;9.410;2022-12-29T12:23:28;97555.63;;;12.51;67.19
9187;BME280;7273;48.902;9.410;2022-12-29T12:26:12;97557.13;;;12.43;68.93
9187;BME280;7273;48.902;9.410;2022-12-29T12:28:48;97547.81;;;12.36;68.92
9187;BME280;7273;48.902;9.410;2022-12-29T12:34:06;97562.75;;;12.33;70.03
9187;BME280;7273;48.902;9.410;2022-12-29T12:42:33;97539.75;;;12.31;70.58
9187;BME280;7273;48.902;9.410;2022-12-29T12:51:19;97520.09;;;12.39;70.71
9187;BME280;7273;48.902;9.410;2022-12-29T13:02:02;97524.50;;;12.48;70.74
9187;BME280;7273;48.902;9.410;2022-12-29T13:21:07;97518.78;;;12.63;69.39
9187;BME280;7273;48.902;9.410;2022-12-29T13:26:50;97508.59;;;12.69;69.32
9187;BME280;7273;48.902;9.410;2022-12-29T13:29:34;97498.88;;;12.68;67.78
9187;BME280;7273;48.902;9.410;2022-12-29T13:34:52;97506.91;;;12.73;69.26
9187;BME280;7273;48.902;9.410;2022-12-29T13:37:25;97505.00;;;12.73;69.67
9187;BME280;7273;48.902;9.410;2022-12-29T13:39:55;97496.03;;;12.73;69.87
9187;BME280;7273;48.902;9.410;2022-12-29T13:42:24;97494.41;;;12.72;69.97
9187;BME280;7273;48.902;9.410;2022-12-29T13:44:52;97494.25;;;12.68;70.15
9187;BME280;7273;48.902;9.410;2022-12-29T13:47:30;97505.88;;;12.69;70.20
9187;BME280;7273;48.902;9.410;2022-12-29T13:49:57;97496.25;;;12.63;69.63
9187;BME280;7273;48.902;9.410;2022-12-29T13:55:00;97489.25;;;12.62;70.50
9187;BME280;7273;48.902;9.410;2022-12-29T13:57:41;97492.53;;;12.59;68.52
9187;BME280;7273;48.902;9.410;2022-12-29T14:00:18;97495.84;;;12.56;70.06
9187;BME280;7273;48.902;9.410;2022-12-29T14:07:49;97488.31;;;12.53;70.22
9187;BME280;7273;48.902;9.410;2022-12-29T14:10:45;97498.34;;;12.52;70.62
9187;BME280;7273;48.902;9.410;2022-12-29T14:13:25;97506.81;;;12.51;69.51
9187;BME280;7273;48.902;9.410;2022-12-29T14:15:54;97494.88;;;12.52;70.14
9187;BME280;7273;48.902;9.410;2022-12-29T14:18:24;97500.38;;;12.47;68.94
9187;BME280;7273;48.902;9.410;2022-12-29T14:20:54;97512.84;;;12.48;69.15
9187;BME280;7273;48.902;9.410;2022-12-29T14:28:36;97521.97;;;12.38;69.36
9187;BME280;7273;48.902;9.410;2022-12-29T14:33:41;97520.09;;;12.39;70.51
9187;BME280;7273;48.902;9.410;2022-12-29T14:36:37;97517.47;;;12.34;69.03
9187;BME280;7273;48.902;9.410;2022-12-29T14:39:03;97506.63;;;12.34;70.23
9187;BME280;7273;48.902;9.410;2022-12-29T14:41:38;97519.38;;;12.33;70.23
9187;BME280;7273;48.902;9.410;2022-12-29T14:49:26;97519.06;;;12.35;70.92
9187;BME280;7273;48.902;9.410;2022-12-29T14:51:54;97526.38;;;12.34;70.88
9187;BME280;7273;48.902;9.410;2022-12-29T14:57:06;97518.06;;;12.31;70.96
9187;BME280;7273;48.902;9.410;2022-12-29T14:59:33;97515.47;;;12.26;70.57
9187;BME280;7273;48.902;9.410;2022-12-29T15:02:03;97521.66;;;12.26;71.20
9187;BME280;7273;48.902;9.410;2022-12-29T15:04:33;97512.84;;;12.21;71.01
9187;BME280;7273;48.902;9.410;2022-12-29T15:07:00;97521.28;;;12.19;71.26
9187;BME280;7273;48.902;9.410;2022-12-29T15:09:35;97520.75;;;12.17;71.19
9187;BME280;7273;48.902;9.410;2022-12-29T15:14:53;97512.63;;;12.17;71.22
9187;BME280;7273;48.902;9.410;2022-12-29T15:19:49;97507.00;;;12.13;71.38
9187;BME280;7273;48.902;9.410;2022-12-29T15:22:15;97510.22;;;12.15;71.57
9187;BME280;7273;48.902;9.410;2022-12-29T15:24:42;97503.78;;;12.11;71.57
9187;BME280;7273;48.902;9.410;2022-12-29T15:27:13;97499.97;;;12.12;71.59
9187;BME280;7273;48.902;9.410;2022-12-29T15:29:40;97499.47;;;12.10;71.64
9187;BME280;7273;48.902;9.410;2022-12-29T15:32:18;97505.72;;;12.11;71.72
9187;BME280;7273;48.902;9.410;2022-12-29T15:34:46;97516.03;;;12.09;71.88
9187;BME280;7273;48.902;9.410;2022-12-29T15:37:26;97515.22;;;12.08;71.46
9187;BME280;7273;48.902;9.410;2022-12-29T15:39:53;97520.94;;;12.07;71.10
9187;BME280;7273;48.902;9.410;2022-12-29T15:44:51;97520.34;;;12.10;71.35
9187;BME280;7273;48.902;9.410;2022-12-29T15:47:19;97541.53;;;12.08;70.78
9187;BME280;7273;48.902;9.410;2022-12-29T15:50:02;97562.72;;;12.06;70.53
9187;BME280;7273;48.902;9.410;2022-12-29T15:52:31;97625.50;;;11.94;71.91
9187;BME280;7273;48.902;9.410;2022-12-29T15:54:58;97628.94;;;11.63;72.70